sensor_id;sensor_type;location;lat;lon;timestamp;pressure;altitude;pressure_sealevel;temperature;humidity
80202;BME280;69521;54.454;9.928;2024-02-26T00:02:04;100358.38;;;2.21;100.00
80202;BME280;69521;54.454;9.928;2024-02-26T00:04:29;100363.47;;;2.24;100.00
80202;BME280;69521;54.454;9.928;2024-02-26T00:06:55;100366.97;;;2.25;100.00
80202;BME280;69521;54.454;9.928;2024-02-26T00:09:21;100366.69;;;2.30;100.00
80202;BME280;69521;54.454;9.928;2024-02-26T00:11:46;100366.44;;;2.20;100.00
80202;BME280;69521;54.454;9.928;2024-02-26T00:14:11;100367.47;;;2.17;100.00
80202;BME280;69521;54.454;9.928;2024-02-26T00:16:42;100366.38;;;2.07;100.00
80202;BME280;69521;54.454;9.928;2024-02-26T00:19:10;100360.41;;;2.04;100.00
80202;BME280;69521;54.454;9.928;2024-02-26T00:21:35;100366.47;;;2.06;100.00
80202;BME280;69521;54.454;9.928;2024-02-26T00:24:00;100369.78;;;2.09;100.00
80202;BME280;69521;54.454;9.928;2024-02-26T00:26:26;100369.56;;;2.12;100.00
80202;BME280;69521;54.454;9.928;2024-02-26T00:28:51;100369.41;;;2.01;100.00
80202;BME280;69521;54.454;9.928;2024-02-26T00:31:16;100365.63;;;1.91;100.00
80202;BME280;69521;54.454;9.928;2024-02-26T00:33:42;100367.72;;;1.86;100.00
80202;BME280;69521;54.454;9.928;2024-02-26T00:36:07;100372.84;;;1.89;100.00
80202;BME280;69521;54.454;9.928;2024-02-26T00:38:33;100373.69;;;1.75;100.00
80202;BME280;69521;54.454;9.928;2024-02-26T00:40:58;100371.91;;;1.76;100.00
80202;BME280;69521;54.454;9.928;2024-02-26T00:43:23;100378.06;;;1.76;100.00
80202;BME280;69521;54.454;9.928;2024-02-26T00:45:49;100384.41;;;1.74;100.00
80202;BME280;69521;54.454;9.928;2024-02-26T00:48:14;100382.50;;;1.76;100.00
80202;BME280;69521;54.454;9.928;2024-02-26T00:50:40;100381.81;;;1.72;100.00
80202;BME280;69521;54.454;9.928;2024-02-26T00:53:05;100383.53;;;1.73;100.00
80202;BME280;69521;54.454;9.928;2024-02-26T00:55:30;100383.47;;;1.75;100.00
80202;BME280;69521;54.454;9.928;2024-02-26T00:57:56;100384.66;;;1.69;100.00
80202;BME280;69521;54.454;9.928;2024-02-26T01:00:21;100391.94;;;1.66;100.00
80202;BME280;69521;54.454;9.928;2024-02-26T01:02:47;100391.56;;;1.57;100.00
80202;BME280;69521;54.454;9.928;2024-02-26T01:05:13;100386.84;;;1.48;100.00
80202;BME280;69521;54.454;9.928;2024-02-26T01:07:38;100381.34;;;1.37;100.00
80202;BME280;69521;54.454;9.928;2024-02-26T01:10:05;100389.25;;;1.23;100.00
80202;BME280;69521;54.454;9.928;2024-02-26T01:12:32;100387.06;;;1.15;100.00
80202;BME280;69521;54.454;9.928;2024-02-26T01:14:57;100398.88;;;1.10;100.00
80202;BME280;69521;54.454;9.928;2024-02-26T01:17:22;100395.84;;;1.02;100.00
80202;BME280;69521;54.454;9.928;2024-02-26T01:19:47;100406.97;;;0.92;100.00
80202;BME280;69521;54.454;9.928;2024-02-26T01:22:13;100407.41;;;0.85;100.00
80202;BME280;69521;54.454;9.928;2024-02-26T01:24:38;100405.00;;;0.80;100.00
80202;BME280;69521;54.454;9.928;2024-02-26T01:27:04;100396.88;;;0.83;100.00
80202;BME280;69521;54.454;9.928;2024-02-26T01:29:29;100395.53;;;0.76;100.00
80202;BME280;69521;54.454;9.928;2024-02-26T01:31:54;100411.59;;;0.73;100.00
80202;BME280;69521;54.454;9.928;2024-02-26T01:34:20;100406.41;;;0.72;100.00
80202;BME280;69521;54.454;9.928;2024-02-26T01:36:45;100393.34;;;0.69;100.00
80202;BME280;69521;54.454;9.928;2024-02-26T01:39:11;100402.41;;;0.64;100.00
80202;BME280;69521;54.454;9.928;2024-02-26T01:41:38;100401.53;;;0.64;100.00
80202;BME280;69521;54.454;9.928;2024-02-26T01:44:04;100414.69;;;0.66;100.00
80202;BME280;69521;54.454;9.928;2024-02-26T01:46:29;100410.94;;;0.70;100.00
80202;BME280;69521;54.454;9.928;2024-02-26T01:48:56;100414.97;;;0.61;100.00
80202;BME280;69521;54.454;9.928;2024-02-26T01:51:22;100422.97;;;0.59;100.00
80202;BME280;69521;54.454;9.928;2024-02-26T01:53:48;100414.19;;;0.59;100.00
80202;BME280;69521;54.454;9.928;2024-02-26T01:56:15;100420.84;;;0.50;100.00
80202;BME280;69521;54.454;9.928;2024-02-26T01:58:42;100410.94;;;0.70;100.00
80202;BME280;69521;54.454;9.928;2024-02-26T02:01:08;100415.56;;;0.50;100.00
80202;BME280;69521;54.454;9.928;2024-02-26T02:03:33;100418.22;;;0.35;100.00
80202;BME280;69521;54.454;9.928;2024-02-26T02:05:59;100426.69;;;0.25;100.00
80202;BME280;69521;54.454;9.928;2024-02-26T02:08:24;100422.84;;;0.15;100.00
80202;BME280;69521;54.454;9.928;2024-02-26T02:10:50;100417.78;;;0.11;100.00
80202;BME280;69521;54.454;9.928;2024-02-26T02:13:16;100421.13;;;0.14;100.00
80202;BME280;69521;54.454;9.928;2024-02-26T02:15:41;100423.34;;;0.06;100.00
80202;BME280;69521;54.454;9.928;2024-02-26T02:18:07;100423.19;;;-0.08;100.00
80202;BME280;69521;54.454;9.928;2024-02-26T02:20:33;100425.94;;;-0.10;100.00
80202;BME280;69521;54.454;9.928;2024-02-26T02:23:02;100430.78;;;-0.18;100.00
80202;BME280;69521;54.454;9.928;2024-02-26T02:25:27;100419.16;;;-0.31;100.00
80202;BME280;69521;54.454;9.928;2024-02-26T02:27:54;100426.25;;;-0.49;100.00
80202;BME280;69521;54.454;9.928;2024-02-26T02:30:25;100424.44;;;-0.64;100.00
80202;BME280;69521;54.454;9.928;2024-02-26T02:32:53;100426.84;;;-0.77;100.00
80202;BME280;69521;54.454;9.928;2024-02-26T02:35:18;100432.38;;;-0.81;100.00
80202;BME280;69521;54.454;9.928;2024-02-26T02:37:43;100439.59;;;-0.68;100.00
80202;BME280;69521;54.454;9.928;2024-02-26T02:40:09;100443.06;;;-0.50;100.00
80202;BME280;69521;54.454;9.928;2024-02-26T02:42:34;100446.94;;;-0.40;100.00
80202;BME280;69521;54.454;9.928;2024-02-26T02:45:00;100443.44;;;-0.40;100.00
80202;BME280;69521;54.454;9.928;2024-02-26T02:47:25;100442.72;;;-0.44;100.00
80202;BME280;69521;54.454;9.928;2024-02-26T02:49:50;100434.69;;;-0.58;100.00
80202;BME280;69521;54.454;9.928;2024-02-26T02:52:16;100435.78;;;-0.62;100.00
80202;BME280;69521;54.454;9.928;2024-02-26T02:54:41;100442.31;;;-0.69;100.00
80202;BME280;69521;54.454;9.928;2024-02-26T02:57:08;100440.97;;;-0.78;100.00
80202;BME280;69521;54.454;9.928;2024-02-26T02:59:34;100447.03;;;-0.76;100.00
80202;BME280;69521;54.454;9.928;2024-02-26T03:02:00;100446.66;;;-0.68;100.00
80202;BME280;69521;54.454;9.928;2024-02-26T03:04:25;100454.88;;;-0.57;100.00
80202;BME280;69521;54.454;9.928;2024-02-26T03:06:50;100451.63;;;-0.62;100.00
80202;BME280;69521;54.454;9.928;2024-02-26T03:09:16;100447.50;;;-0.68;100.00
80202;BME280;69521;54.454;9.928;2024-02-26T03:11:41;100456.97;;;-0.63;100.00
80202;BME280;69521;54.454;9.928;2024-02-26T03:14:06;100458.44;;;-0.58;100.00
80202;BME280;69521;54.454;9.928;2024-02-26T03:16:32;100462.25;;;-0.63;100.00
80202;BME280;69521;54.454;9.928;2024-02-26T03:18:57;100472.53;;;-0.75;100.00
80202;BME280;69521;54.454;9.928;2024-02-26T03:21:24;100472.75;;;-0.79;100.00
80202;BME280;69521;54.454;9.928;2024-02-26T03:23:50;100467.91;;;-0.88;100.00
80202;BME280;69521;54.454;9.928;2024-02-26T03:26:15;100465.50;;;-0.93;100.00
80202;BME280;69521;54.454;9.928;2024-02-26T03:28:40;100463.25;;;-1.01;100.00
80202;BME280;69521;54.454;9.928;2024-02-26T03:31:06;100456.41;;;-1.05;100.00
80202;BME280;69521;54.454;9.928;2024-02-26T03:33:31;100473.09;;;-1.04;100.00
80202;BME280;69521;54.454;9.928;2024-02-26T03:35:56;100462.63;;;-1.06;100.00
80202;BME280;69521;54.454;9.928;2024-02-26T03:38:22;100472.41;;;-1.08;100.00
80202;BME280;69521;54.454;9.928;2024-02-26T03:40:47;100476.81;;;-1.08;100.00
80202;BME280;69521;54.454;9.928;2024-02-26T03:43:13;100476.13;;;-1.12;100.00
80202;BME280;69521;54.454;9.928;2024-02-26T03:45:38;100477.97;;;-1.14;100.00
80202;BME280;69521;54.454;9.928;2024-02-26T03:48:04;100478.13;;;-1.17;100.00
80202;BME280;69521;54.454;9.928;2024-02-26T03:50:29;100480.78;;;-1.17;100.00
80202;BME280;69521;54.454;9.928;2024-02-26T03:52:55;100486.75;;;-1.13;100.00
80202;BME280;69521;54.454;9.928;2024-02-26T03:55:22;100480.47;;;-1.11;100.00
80202;BME280;69521;54.454;9.928;2024-02-26T03:57:50;100474.00;;;-1.22;100.00
80202;BME280;69521;54.454;9.928;2024-02-26T04:00:16;100473.94;;;-1.21;100.00
80202;BME280;69521;54.454;9.928;2024-02-26T04:02:41;100477.50;;;-1.22;100.00
80202;BME280;69521;54.454;9.928;2024-02-26T04:05:10;100482.16;;;-1.27;100.00
80202;BME280;69521;54.454;9.928;2024-02-26T04:07:35;100487.19;;;-1.22;100.00
80202;BME280;69521;54.454;9.928;2024-02-26T04:10:01;100495.81;;;-1.19;100.00
80202;BME280;69521;54.454;9.928;2024-02-26T04:12:29;100492.19;;;-1.16;100.00
80202;BME280;69521;54.454;9.928;2024-02-26T04:14:54;100495.03;;;-1.21;100.00
80202;BME280;69521;54.454;9.928;2024-02-26T04:17:19;100502.31;;;-1.26;100.00
80202;BME280;69521;54.454;9.928;2024-02-26T04:19:44;100500.75;;;-1.30;100.00
80202;BME280;69521;54.454;9.928;2024-02-26T04:22:10;100508.97;;;-1.36;100.00
80202;BME280;69521;54.454;9.928;2024-02-26T04:24:36;100509.06;;;-1.38;100.00
80202;BME280;69521;54.454;9.928;2024-02-26T04:27:01;100512.69;;;-1.40;100.00
80202;BME280;69521;54.454;9.928;2024-02-26T04:29:26;100521.09;;;-1.32;100.00
80202;BME280;69521;54.454;9.928;2024-02-26T04:31:52;100523.44;;;-1.26;100.00
80202;BME280;69521;54.454;9.928;2024-02-26T04:34:17;100520.50;;;-1.20;100.00
80202;BME280;69521;54.454;9.928;2024-02-26T04:36:43;100531.84;;;-1.18;100.00
80202;BME280;69521;54.454;9.928;2024-02-26T04:39:09;100538.34;;;-1.25;100.00
80202;BME280;69521;54.454;9.928;2024-02-26T04:41:35;100541.22;;;-1.30;100.00
80202;BME280;69521;54.454;9.928;2024-02-26T04:44:00;100544.22;;;-1.37;100.00
80202;BME280;69521;54.454;9.928;2024-02-26T04:46:27;100545.34;;;-1.43;100.00
80202;BME280;69521;54.454;9.928;2024-02-26T04:48:53;100550.34;;;-1.37;100.00
80202;BME280;69521;54.454;9.928;2024-02-26T04:51:18;100551.06;;;-1.33;100.00
80202;BME280;69521;54.454;9.928;2024-02-26T04:53:44;100560.81;;;-1.35;100.00
80202;BME280;69521;54.454;9.928;2024-02-26T04:56:09;100558.34;;;-1.38;100.00
80202;BME280;69521;54.454;9.928;2024-02-26T04:58:34;100553.06;;;-1.38;100.00
80202;BME280;69521;54.454;9.928;2024-02-26T05:00:59;100554.63;;;-1.34;100.00
80202;BME280;69521;54.454;9.928;2024-02-26T05:03:25;100561.03;;;-1.40;100.00
80202;BME280;69521;54.454;9.928;2024-02-26T05:05:50;100566.66;;;-1.47;100.00
80202;BME280;69521;54.454;9.928;2024-02-26T05:08:15;100572.31;;;-1.55;100.00
80202;BME280;69521;54.454;9.928;2024-02-26T05:10:41;100584.63;;;-1.55;100.00
80202;BME280;69521;54.454;9.928;2024-02-26T05:13:09;100586.56;;;-1.59;100.00
80202;BME280;69521;54.454;9.928;2024-02-26T05:15:35;100588.34;;;-1.59;100.00
80202;BME280;69521;54.454;9.928;2024-02-26T05:18:01;100589.84;;;-1.54;100.00
80202;BME280;69521;54.454;9.928;2024-02-26T05:20:26;100585.44;;;-1.53;100.00
80202;BME280;69521;54.454;9.928;2024-02-26T05:22:51;100594.19;;;-1.53;100.00
80202;BME280;69521;54.454;9.928;2024-02-26T05:25:17;100590.97;;;-1.59;100.00
80202;BME280;69521;54.454;9.928;2024-02-26T05:27:43;100593.03;;;-1.66;100.00
80202;BME280;69521;54.454;9.928;2024-02-26T05:30:09;100598.63;;;-1.74;100.00
80202;BME280;69521;54.454;9.928;2024-02-26T05:32:35;100599.81;;;-1.81;100.00
80202;BME280;69521;54.454;9.928;2024-02-26T05:35:00;100602.41;;;-1.79;100.00
80202;BME280;69521;54.454;9.928;2024-02-26T05:37:25;100601.41;;;-1.77;100.00
80202;BME280;69521;54.454;9.928;2024-02-26T05:39:52;100605.16;;;-1.62;100.00
80202;BME280;69521;54.454;9.928;2024-02-26T05:42:17;100608.81;;;-1.46;100.00
80202;BME280;69521;54.454;9.928;2024-02-26T05:44:42;100612.25;;;-1.25;100.00
80202;BME280;69521;54.454;9.928;2024-02-26T05:47:07;100618.38;;;-1.06;100.00
80202;BME280;69521;54.454;9.928;2024-02-26T05:49:33;100616.88;;;-0.92;100.00
80202;BME280;69521;54.454;9.928;2024-02-26T05:51:58;100627.03;;;-0.83;100.00
80202;BME280;69521;54.454;9.928;2024-02-26T05:54:24;100625.81;;;-0.76;100.00
80202;BME280;69521;54.454;9.928;2024-02-26T05:56:49;100634.06;;;-0.65;100.00
80202;BME280;69521;54.454;9.928;2024-02-26T05:59:14;100633.75;;;-0.59;100.00
80202;BME280;69521;54.454;9.928;2024-02-26T06:01:41;100635.63;;;-0.61;100.00
80202;BME280;69521;54.454;9.928;2024-02-26T06:04:06;100641.75;;;-0.60;100.00
80202;BME280;69521;54.454;9.928;2024-02-26T06:06:31;100651.34;;;-0.58;100.00
80202;BME280;69521;54.454;9.928;2024-02-26T06:08:57;100654.03;;;-0.59;100.00
80202;BME280;69521;54.454;9.928;2024-02-26T06:11:24;100662.91;;;-0.60;100.00
80202;BME280;69521;54.454;9.928;2024-02-26T06:13:49;100655.06;;;-0.62;100.00
80202;BME280;69521;54.454;9.928;2024-02-26T06:16:15;100660.19;;;-0.59;100.00
80202;BME280;69521;54.454;9.928;2024-02-26T06:18:41;100669.69;;;-0.55;100.00
80202;BME280;69521;54.454;9.928;2024-02-26T06:21:09;100675.88;;;-0.56;100.00
80202;BME280;69521;54.454;9.928;2024-02-26T06:23:35;100680.16;;;-0.53;100.00
80202;BME280;69521;54.454;9.928;2024-02-26T06:26:01;100676.66;;;-0.54;100.00
80202;BME280;69521;54.454;9.928;2024-02-26T06:28:26;100680.25;;;-0.55;100.00
80202;BME280;69521;54.454;9.928;2024-02-26T06:30:52;100689.75;;;-0.51;100.00
80202;BME280;69521;54.454;9.928;2024-02-26T06:33:18;100693.09;;;-0.47;100.00
80202;BME280;69521;54.454;9.928;2024-02-26T06:35:43;100706.41;;;-0.32;100.00
80202;BME280;69521;54.454;9.928;2024-02-26T06:38:09;100709.84;;;-0.29;100.00
80202;BME280;69521;54.454;9.928;2024-02-26T06:40:36;100714.41;;;-0.33;100.00
80202;BME280;69521;54.454;9.928;2024-02-26T06:43:02;100709.28;;;-0.36;100.00
80202;BME280;69521;54.454;9.928;2024-02-26T06:45:27;100701.69;;;-0.25;100.00
80202;BME280;69521;54.454;9.928;2024-02-26T06:47:52;100706.75;;;-0.20;100.00
80202;BME280;69521;54.454;9.928;2024-02-26T06:50:18;100710.50;;;-0.07;100.00
80202;BME280;69521;54.454;9.928;2024-02-26T06:52:44;100715.63;;;-0.04;100.00
80202;BME280;69521;54.454;9.928;2024-02-26T06:55:10;100709.00;;;-0.13;100.00
80202;BME280;69521;54.454;9.928;2024-02-26T06:57:36;100718.59;;;-0.10;100.00
80202;BME280;69521;54.454;9.928;2024-02-26T07:00:01;100714.84;;;-0.06;100.00
80202;BME280;69521;54.454;9.928;2024-02-26T07:02:28;100720.44;;;-0.12;100.00
80202;BME280;69521;54.454;9.928;2024-02-26T07:04:54;100719.66;;;-0.14;100.00
80202;BME280;69521;54.454;9.928;2024-02-26T07:07:21;100731.56;;;-0.06;100.00
80202;BME280;69521;54.454;9.928;2024-02-26T07:09:47;100726.00;;;0.01;100.00
80202;BME280;69521;54.454;9.928;2024-02-26T07:12:13;100737.50;;;-0.01;100.00
80202;BME280;69521;54.454;9.928;2024-02-26T07:14:39;100737.94;;;0.09;100.00
80202;BME280;69521;54.454;9.928;2024-02-26T07:17:04;100727.41;;;0.08;100.00
80202;BME280;69521;54.454;9.928;2024-02-26T07:19:29;100736.06;;;0.11;100.00
80202;BME280;69521;54.454;9.928;2024-02-26T07:21:55;100729.75;;;0.14;100.00
80202;BME280;69521;54.454;9.928;2024-02-26T07:24:20;100738.56;;;0.14;100.00
80202;BME280;69521;54.454;9.928;2024-02-26T07:26:46;100736.22;;;0.25;100.00
80202;BME280;69521;54.454;9.928;2024-02-26T07:29:11;100742.91;;;0.15;100.00
80202;BME280;69521;54.454;9.928;2024-02-26T07:31:37;100736.69;;;0.16;100.00
80202;BME280;69521;54.454;9.928;2024-02-26T07:34:02;100745.47;;;0.34;100.00
80202;BME280;69521;54.454;9.928;2024-02-26T07:36:27;100750.69;;;0.36;100.00
80202;BME280;69521;54.454;9.928;2024-02-26T07:38:53;100757.84;;;0.34;100.00
80202;BME280;69521;54.454;9.928;2024-02-26T07:41:19;100748.13;;;0.34;100.00
80202;BME280;69521;54.454;9.928;2024-02-26T07:43:45;100753.88;;;0.42;100.00
80202;BME280;69521;54.454;9.928;2024-02-26T07:46:13;100761.66;;;0.62;100.00
80202;BME280;69521;54.454;9.928;2024-02-26T07:48:38;100769.38;;;0.67;100.00
80202;BME280;69521;54.454;9.928;2024-02-26T07:51:04;100765.63;;;0.88;100.00
80202;BME280;69521;54.454;9.928;2024-02-26T07:53:30;100773.53;;;1.06;100.00
80202;BME280;69521;54.454;9.928;2024-02-26T07:55:56;100774.88;;;1.30;100.00
80202;BME280;69521;54.454;9.928;2024-02-26T07:58:23;100773.31;;;1.26;100.00
80202;BME280;69521;54.454;9.928;2024-02-26T08:00:48;100772.25;;;1.62;100.00
80202;BME280;69521;54.454;9.928;2024-02-26T08:03:14;100779.19;;;1.64;100.00
80202;BME280;69521;54.454;9.928;2024-02-26T08:05:41;100769.16;;;1.53;99.47
80202;BME280;69521;54.454;9.928;2024-02-26T08:08:07;100777.47;;;1.47;100.00
80202;BME280;69521;54.454;9.928;2024-02-26T08:10:33;100774.03;;;1.61;100.00
80202;BME280;69521;54.454;9.928;2024-02-26T08:12:58;100782.78;;;2.10;98.54
80202;BME280;69521;54.454;9.928;2024-02-26T08:15:31;100781.47;;;2.17;97.57
80202;BME280;69521;54.454;9.928;2024-02-26T08:17:56;100784.66;;;2.08;98.43
80202;BME280;69521;54.454;9.928;2024-02-26T08:20:21;100785.78;;;2.04;98.22
80202;BME280;69521;54.454;9.928;2024-02-26T08:22:47;100790.91;;;1.91;97.79
80202;BME280;69521;54.454;9.928;2024-02-26T08:25:12;100812.63;;;2.30;98.10
80202;BME280;69521;54.454;9.928;2024-02-26T08:27:38;100817.94;;;2.14;98.32
80202;BME280;69521;54.454;9.928;2024-02-26T08:30:03;100813.69;;;1.96;98.21
80202;BME280;69521;54.454;9.928;2024-02-26T08:32:29;100819.25;;;1.91;98.97
80202;BME280;69521;54.454;9.928;2024-02-26T08:34:54;100816.06;;;2.00;99.01
80202;BME280;69521;54.454;9.928;2024-02-26T08:37:20;100822.94;;;2.04;98.81
80202;BME280;69521;54.454;9.928;2024-02-26T08:39:45;100833.38;;;2.07;99.25
80202;BME280;69521;54.454;9.928;2024-02-26T08:42:11;100834.84;;;2.43;97.64
80202;BME280;69521;54.454;9.928;2024-02-26T08:44:36;100834.03;;;2.11;97.86
80202;BME280;69521;54.454;9.928;2024-02-26T08:47:01;100837.31;;;2.00;98.98
80202;BME280;69521;54.454;9.928;2024-02-26T08:49:27;100836.63;;;2.12;99.94
80202;BME280;69521;54.454;9.928;2024-02-26T08:51:53;100843.38;;;2.18;99.63
80202;BME280;69521;54.454;9.928;2024-02-26T08:54:18;100834.34;;;2.36;99.49
80202;BME280;69521;54.454;9.928;2024-02-26T08:56:43;100847.69;;;2.50;99.52
80202;BME280;69521;54.454;9.928;2024-02-26T08:59:09;100838.78;;;2.51;98.26
80202;BME280;69521;54.454;9.928;2024-02-26T09:01:34;100843.78;;;2.42;98.26
80202;BME280;69521;54.454;9.928;2024-02-26T09:03:59;100840.44;;;2.84;98.59
80202;BME280;69521;54.454;9.928;2024-02-26T09:06:25;100842.44;;;2.95;97.74
80202;BME280;69521;54.454;9.928;2024-02-26T09:08:50;100841.75;;;2.77;97.71
80202;BME280;69521;54.454;9.928;2024-02-26T09:11:16;100844.78;;;2.85;97.23
80202;BME280;69521;54.454;9.928;2024-02-26T09:13:41;100848.22;;;2.87;97.64
80202;BME280;69521;54.454;9.928;2024-02-26T09:16:07;100850.06;;;3.01;97.58
80202;BME280;69521;54.454;9.928;2024-02-26T09:18:33;100856.94;;;2.89;97.25
80202;BME280;69521;54.454;9.928;2024-02-26T09:20:58;100855.63;;;2.96;98.09
80202;BME280;69521;54.454;9.928;2024-02-26T09:23:23;100859.72;;;3.02;97.65
80202;BME280;69521;54.454;9.928;2024-02-26T09:25:49;100855.38;;;3.15;98.21
80202;BME280;69521;54.454;9.928;2024-02-26T09:28:14;100859.59;;;3.33;96.73
80202;BME280;69521;54.454;9.928;2024-02-26T09:30:42;100862.19;;;3.49;96.18
80202;BME280;69521;54.454;9.928;2024-02-26T09:33:07;100859.44;;;3.50;95.43
80202;BME280;69521;54.454;9.928;2024-02-26T09:35:33;100858.19;;;3.84;94.23
80202;BME280;69521;54.454;9.928;2024-02-26T09:37:58;100857.66;;;4.06;92.33
80202;BME280;69521;54.454;9.928;2024-02-26T09:40:24;100869.00;;;3.96;92.50
80202;BME280;69521;54.454;9.928;2024-02-26T09:42:53;100861.13;;;3.94;92.05
80202;BME280;69521;54.454;9.928;2024-02-26T09:45:21;100877.09;;;3.80;94.22
80202;BME280;69521;54.454;9.928;2024-02-26T09:47:48;100873.94;;;3.88;93.96
80202;BME280;69521;54.454;9.928;2024-02-26T09:50:14;100870.63;;;3.84;94.36
80202;BME280;69521;54.454;9.928;2024-02-26T09:52:43;100880.81;;;3.77;94.04
80202;BME280;69521;54.454;9.928;2024-02-26T09:55:09;100877.88;;;3.54;94.60
80202;BME280;69521;54.454;9.928;2024-02-26T09:57:36;100883.66;;;3.74;94.85
80202;BME280;69521;54.454;9.928;2024-02-26T10:00:03;100888.31;;;3.85;93.62
80202;BME280;69521;54.454;9.928;2024-02-26T10:02:31;100878.91;;;3.79;93.33
80202;BME280;69521;54.454;9.928;2024-02-26T10:04:59;100883.66;;;3.74;93.86
80202;BME280;69521;54.454;9.928;2024-02-26T10:07:28;100889.41;;;3.38;93.97
80202;BME280;69521;54.454;9.928;2024-02-26T10:09:55;100894.53;;;3.27;94.12
80202;BME280;69521;54.454;9.928;2024-02-26T10:12:21;100899.72;;;3.59;94.85
80202;BME280;69521;54.454;9.928;2024-02-26T10:14:47;100902.94;;;3.64;94.68
80202;BME280;69521;54.454;9.928;2024-02-26T10:17:12;100898.91;;;3.42;94.35
80202;BME280;69521;54.454;9.928;2024-02-26T10:19:38;100906.69;;;3.45;95.63
80202;BME280;69521;54.454;9.928;2024-02-26T10:22:03;100910.41;;;2.99;95.97
80202;BME280;69521;54.454;9.928;2024-02-26T10:24:30;100909.66;;;2.97;97.22
80202;BME280;69521;54.454;9.928;2024-02-26T10:26:56;100906.56;;;3.18;97.29
80202;BME280;69521;54.454;9.928;2024-02-26T10:29:24;100917.66;;;3.55;97.23
80202;BME280;69521;54.454;9.928;2024-02-26T10:31:53;100915.69;;;3.73;96.78
80202;BME280;69521;54.454;9.928;2024-02-26T10:34:20;100914.34;;;3.94;96.74
80202;BME280;69521;54.454;9.928;2024-02-26T10:36:45;100921.75;;;3.75;94.76
80202;BME280;69521;54.454;9.928;2024-02-26T10:39:12;100923.84;;;3.98;94.55
80202;BME280;69521;54.454;9.928;2024-02-26T10:41:37;100922.66;;;4.31;95.09
80202;BME280;69521;54.454;9.928;2024-02-26T10:44:03;100928.56;;;4.36;93.97
80202;BME280;69521;54.454;9.928;2024-02-26T10:46:29;100926.06;;;4.33;93.25
80202;BME280;69521;54.454;9.928;2024-02-26T10:48:55;100921.34;;;4.38;93.75
80202;BME280;69521;54.454;9.928;2024-02-26T10:51:28;100932.19;;;4.35;93.96
80202;BME280;69521;54.454;9.928;2024-02-26T10:53:58;100930.28;;;4.37;93.62
80202;BME280;69521;54.454;9.928;2024-02-26T10:56:26;100923.16;;;4.23;92.38
80202;BME280;69521;54.454;9.928;2024-02-26T10:58:55;100933.09;;;4.48;93.93
80202;BME280;69521;54.454;9.928;2024-02-26T11:01:21;100936.72;;;5.01;91.99
80202;BME280;69521;54.454;9.928;2024-02-26T11:03:54;100935.13;;;5.11;90.40
80202;BME280;69521;54.454;9.928;2024-02-26T11:06:19;100947.19;;;5.43;89.10
80202;BME280;69521;54.454;9.928;2024-02-26T11:08:50;100952.31;;;5.59;89.41
80202;BME280;69521;54.454;9.928;2024-02-26T11:11:17;100951.88;;;5.78;89.10
80202;BME280;69521;54.454;9.928;2024-02-26T11:13:44;100936.75;;;6.53;84.21
80202;BME280;69521;54.454;9.928;2024-02-26T11:16:13;100933.25;;;7.00;83.17
80202;BME280;69521;54.454;9.928;2024-02-26T11:18:39;100933.28;;;7.47;82.20
80202;BME280;69521;54.454;9.928;2024-02-26T11:21:07;100934.91;;;7.72;78.54
80202;BME280;69521;54.454;9.928;2024-02-26T11:23:34;100934.72;;;7.40;78.95
80202;BME280;69521;54.454;9.928;2024-02-26T11:26:03;100933.38;;;8.03;77.39
80202;BME280;69521;54.454;9.928;2024-02-26T11:28:30;100931.66;;;8.24;76.98
80202;BME280;69521;54.454;9.928;2024-02-26T11:30:59;100924.25;;;8.16;73.34
80202;BME280;69521;54.454;9.928;2024-02-26T11:33:26;100929.34;;;8.30;74.06
80202;BME280;69521;54.454;9.928;2024-02-26T11:35:51;100932.41;;;7.92;74.28
80202;BME280;69521;54.454;9.928;2024-02-26T11:38:20;100934.22;;;7.34;76.75
80202;BME280;69521;54.454;9.928;2024-02-26T11:40:46;100938.63;;;7.47;77.65
80202;BME280;69521;54.454;9.928;2024-02-26T11:43:12;100944.69;;;7.84;79.77
80202;BME280;69521;54.454;9.928;2024-02-26T11:48:20;100943.13;;;8.15;74.32
80202;BME280;69521;54.454;9.928;2024-02-26T11:50:49;100940.44;;;7.81;74.66
80202;BME280;69521;54.454;9.928;2024-02-26T11:53:25;100938.19;;;7.64;74.91
80202;BME280;69521;54.454;9.928;2024-02-26T11:58:45;100940.94;;;7.86;78.68
80202;BME280;69521;54.454;9.928;2024-02-26T12:04:01;100942.16;;;7.47;75.98
80202;BME280;69521;54.454;9.928;2024-02-26T12:06:27;100948.84;;;8.21;77.24
80202;BME280;69521;54.454;9.928;2024-02-26T12:08:55;100943.13;;;7.92;74.23
80202;BME280;69521;54.454;9.928;2024-02-26T12:11:20;100947.38;;;8.17;75.54
80202;BME280;69521;54.454;9.928;2024-02-26T12:13:47;100953.59;;;8.18;75.04
80202;BME280;69521;54.454;9.928;2024-02-26T12:16:37;100948.72;;;8.23;71.75
80202;BME280;69521;54.454;9.928;2024-02-26T12:19:04;100945.09;;;8.35;73.31
80202;BME280;69521;54.454;9.928;2024-02-26T12:21:30;100945.31;;;8.32;73.85
80202;BME280;69521;54.454;9.928;2024-02-26T12:23:55;100958.72;;;8.43;76.69
80202;BME280;69521;54.454;9.928;2024-02-26T12:26:21;100951.41;;;8.45;72.94
80202;BME280;69521;54.454;9.928;2024-02-26T12:28:47;100952.13;;;8.58;71.91
80202;BME280;69521;54.454;9.928;2024-02-26T12:31:12;100962.13;;;8.45;73.58
80202;BME280;69521;54.454;9.928;2024-02-26T12:33:37;100967.50;;;8.34;73.15
80202;BME280;69521;54.454;9.928;2024-02-26T12:36:03;100962.34;;;8.65;74.39
80202;BME280;69521;54.454;9.928;2024-02-26T12:38:28;100972.13;;;8.54;75.59
80202;BME280;69521;54.454;9.928;2024-02-26T12:40:55;100974.66;;;8.78;72.27
80202;BME280;69521;54.454;9.928;2024-02-26T12:43:20;100978.94;;;9.13;73.84
80202;BME280;69521;54.454;9.928;2024-02-26T12:45:46;100976.75;;;9.39;71.99
80202;BME280;69521;54.454;9.928;2024-02-26T12:48:12;100990.06;;;9.08;68.19
80202;BME280;69521;54.454;9.928;2024-02-26T12:50:37;100993.81;;;9.17;71.44
80202;BME280;69521;54.454;9.928;2024-02-26T12:53:03;100982.66;;;9.53;68.99